createdAt,value
2018-06-24T00:00:26.228Z,73.48
2018-06-24T00:02:55.545Z,74.24
2018-06-24T00:05:24.851Z,73.96
2018-06-24T00:07:54.154Z,74.42
2018-06-24T00:10:23.473Z,74.52
2018-06-24T00:12:52.778Z,74.82
2018-06-24T00:15:22.048Z,74.76
2018-06-24T00:17:52.357Z,74.92
2018-06-24T00:20:21.385Z,75.25
2018-06-24T00:22:50.688Z,75.48
2018-06-24T00:25:19.774Z,74.86
2018-06-24T00:27:49.098Z,75.08
2018-06-24T00:30:18.494Z,75.42
2018-06-24T00:32:47.855Z,75.36
2018-06-24T00:35:20.489Z,74.79
2018-06-24T00:37:49.969Z,75.01
2018-06-24T00:40:19.286Z,75.50
2018-06-24T00:42:48.615Z,75.10
2018-06-24T00:45:17.958Z,75.67
2018-06-24T00:47:47.394Z,75.84
2018-06-24T00:50:16.852Z,75.75
2018-06-24T00:52:46.166Z,75.11
2018-06-24T00:55:15.248Z,75.19
2018-06-24T00:57:44.668Z,75.88
2018-06-24T01:00:16.181Z,75.65
2018-06-24T01:02:45.687Z,75.57
2018-06-24T01:05:16.216Z,75.50
2018-06-24T01:07:46.035Z,76.07
2018-06-24T01:10:15.375Z,76.03
2018-06-24T01:12:44.772Z,75.71
2018-06-24T01:15:14.120Z,76.07
2018-06-24T01:17:43.710Z,76.86
2018-06-24T01:20:13.165Z,77.46
2018-06-24T01:22:42.503Z,77.62
2018-06-24T01:25:11.983Z,79.80
2018-06-24T01:27:41.296Z,80.49
2018-06-24T01:30:10.688Z,81.18
2018-06-24T01:32:39.809Z,81.18
2018-06-24T01:35:09.114Z,81.19
2018-06-24T01:37:38.428Z,81.17
2018-06-24T01:40:07.713Z,81.22
2018-06-24T01:42:37.883Z,80.88
2018-06-24T01:45:07.197Z,81.78
2018-06-24T01:47:36.244Z,81.60
2018-06-24T01:50:05.553Z,81.12
2018-06-24T01:52:34.820Z,80.55
2018-06-24T01:55:04.173Z,81.20
2018-06-24T01:57:33.649Z,81.46
2018-06-24T02:00:03.333Z,81.40
2018-06-24T02:02:32.651Z,80.62
2018-06-24T02:05:01.952Z,80.78
2018-06-24T02:07:31.216Z,81.38
2018-06-24T02:10:00.473Z,80.86
2018-06-24T02:12:29.759Z,81.61
2018-06-24T02:14:59.179Z,81.48
2018-06-24T02:17:28.449Z,80.83
2018-06-24T02:19:57.804Z,81.11
2018-06-24T02:22:27.061Z,81.74
2018-06-24T02:24:56.407Z,81.19
2018-06-24T02:27:25.708Z,81.64
2018-06-24T02:29:55.005Z,81.78
2018-06-24T02:32:24.281Z,82.01
2018-06-24T02:34:53.557Z,82.53
2018-06-24T02:37:22.889Z,82.56
2018-06-24T02:39:52.334Z,83.13
2018-06-24T02:42:21.646Z,83.01
2018-06-24T02:44:51.025Z,82.42
2018-06-24T02:47:20.317Z,82.54
2018-06-24T02:49:49.649Z,83.25
2018-06-24T02:52:18.951Z,83.12
2018-06-24T02:54:48.380Z,82.38
2018-06-24T02:57:17.678Z,82.14
2018-06-24T02:59:47.002Z,81.58
2018-06-24T03:02:16.452Z,81.26
2018-06-24T03:04:45.735Z,81.70
2018-06-24T03:07:15.165Z,81.49
2018-06-24T03:09:44.462Z,80.65
2018-06-24T03:12:13.807Z,80.58
2018-06-24T03:14:43.100Z,80.56
2018-06-24T03:17:12.377Z,80.61
2018-06-24T03:19:41.761Z,80.54
2018-06-24T03:22:11.199Z,80.48
2018-06-24T03:24:40.512Z,80.56
2018-06-24T03:27:09.910Z,80.85
2018-06-24T03:29:39.236Z,81.10
2018-06-24T03:32:08.541Z,81.62
2018-06-24T03:34:37.869Z,81.65
2018-06-24T03:37:07.155Z,81.41
2018-06-24T03:39:36.464Z,81.08
2018-06-24T03:42:05.893Z,81.13
2018-06-24T03:44:35.174Z,80.99
2018-06-24T03:47:04.597Z,81.15
2018-06-24T03:49:34.972Z,81.37
2018-06-24T03:52:04.231Z,81.22
2018-06-24T03:54:33.537Z,81.22
2018-06-24T03:57:02.891Z,81.90
2018-06-24T03:59:31.914Z,80.80
2018-06-24T04:02:01.335Z,81.80
2018-06-24T04:04:30.689Z,81.81
2018-06-24T04:07:00.102Z,81.02
2018-06-24T04:09:29.412Z,81.08
2018-06-24T04:11:58.785Z,80.62
2018-06-24T04:14:28.062Z,81.07
2018-06-24T04:16:57.500Z,80.21
2018-06-24T04:19:26.829Z,80.84
2018-06-24T04:21:56.120Z,80.59
2018-06-24T04:24:25.472Z,80.82
2018-06-24T04:26:54.755Z,80.90
2018-06-24T04:29:24.065Z,80.41
2018-06-24T04:31:53.430Z,80.14
2018-06-24T04:34:22.798Z,80.70
2018-06-24T04:36:52.126Z,80.32
2018-06-24T04:39:21.126Z,80.05
2018-06-24T04:41:50.569Z,80.29
2018-06-24T04:44:19.888Z,79.68
2018-06-24T04:46:49.138Z,80.29
2018-06-24T04:49:18.531Z,79.12
2018-06-24T04:51:47.825Z,77.68
2018-06-24T04:54:17.119Z,77.29
2018-06-24T04:56:46.486Z,76.51
2018-06-24T04:59:15.930Z,74.94
2018-06-24T05:01:45.581Z,75.35
2018-06-24T05:04:15.023Z,73.50
2018-06-24T05:06:44.381Z,73.63
2018-06-24T05:09:14.034Z,72.89
2018-06-24T05:11:43.380Z,72.67
2018-06-24T05:14:12.802Z,72.92
2018-06-24T05:16:42.136Z,71.66
2018-06-24T05:19:11.512Z,72.15
2018-06-24T05:21:40.832Z,71.32
2018-06-24T05:24:14.451Z,71.89
2018-06-24T05:26:43.736Z,72.23
2018-06-24T05:29:13.133Z,71.81
2018-06-24T05:31:42.498Z,71.30
2018-06-24T05:34:11.821Z,70.25
2018-06-24T05:36:41.137Z,69.54
2018-06-24T05:39:12.262Z,69.69
2018-06-24T05:41:41.742Z,69.81
2018-06-24T05:44:11.218Z,69.16
2018-06-24T05:46:40.492Z,69.15
2018-06-24T05:49:09.805Z,69.15
2018-06-24T05:51:39.174Z,68.80
2018-06-24T05:54:08.483Z,68.30
2018-06-24T05:56:37.789Z,67.24
2018-06-24T05:59:06.793Z,67.26
2018-06-24T06:01:36.099Z,66.38
2018-06-24T06:04:05.190Z,65.30
2018-06-24T06:06:35.269Z,64.35
2018-06-24T06:09:08.258Z,63.26
2018-06-24T06:11:37.587Z,62.79
2018-06-24T06:14:07.092Z,61.88
2018-06-24T06:16:36.405Z,60.83
2018-06-24T06:19:05.957Z,58.96
2018-06-24T06:21:35.219Z,59.84
2018-06-24T06:24:04.538Z,59.56
2018-06-24T06:26:33.868Z,56.94
2018-06-24T06:29:03.121Z,57.87
2018-06-24T06:31:32.457Z,56.92
2018-06-24T06:34:02.024Z,55.14
2018-06-24T06:36:31.029Z,55.40
2018-06-24T06:39:00.326Z,55.17
2018-06-24T06:41:29.623Z,56.32
2018-06-24T06:43:58.968Z,56.62
2018-06-24T06:46:28.275Z,55.90
2018-06-24T06:48:57.551Z,57.44
2018-06-24T06:51:26.804Z,57.21
2018-06-24T06:53:56.107Z,57.03
2018-06-24T06:56:25.363Z,57.38
2018-06-24T06:58:54.597Z,57.91
2018-06-24T07:01:24.779Z,57.47
2018-06-24T07:03:54.425Z,57.90
2018-06-24T07:06:23.702Z,58.64
2018-06-24T07:08:52.969Z,57.74
2018-06-24T07:11:22.675Z,60.05
2018-06-24T07:13:52.094Z,60.34
2018-06-24T07:16:21.488Z,60.66
2018-06-24T07:18:50.792Z,60.93
2018-06-24T07:21:20.727Z,61.17
2018-06-24T07:23:50.046Z,60.36
2018-06-24T07:26:19.366Z,60.80
2018-06-24T07:28:48.729Z,60.01
2018-06-24T07:31:18.137Z,59.70
2018-06-24T07:33:47.764Z,59.42
2018-06-24T07:36:17.106Z,57.99
2018-06-24T07:38:46.419Z,58.81
2018-06-24T07:41:15.932Z,58.56
2018-06-24T07:43:45.393Z,58.08
2018-06-24T07:46:14.723Z,58.55
2018-06-24T07:48:44.116Z,59.58
2018-06-24T07:51:13.428Z,58.05
2018-06-24T07:53:42.767Z,59.06
2018-06-24T07:56:12.271Z,58.22
2018-06-24T07:58:41.695Z,55.98
2018-06-24T08:01:11.309Z,54.82
2018-06-24T08:03:40.583Z,55.38
2018-06-24T08:06:09.847Z,54.19
2018-06-24T08:08:39.239Z,53.70
2018-06-24T08:11:08.753Z,53.17
2018-06-24T08:13:38.074Z,52.93
2018-06-24T08:16:07.359Z,51.65
2018-06-24T08:18:36.772Z,52.34
2018-06-24T08:21:06.117Z,51.81
2018-06-24T08:23:35.512Z,50.62
2018-06-24T08:26:04.951Z,49.84
2018-06-24T08:28:43.170Z,50.25
2018-06-24T08:31:19.363Z,49.84
2018-06-24T08:33:57.590Z,50.46
2018-06-24T08:36:33.269Z,49.20
2018-06-24T08:39:02.742Z,48.37
2018-06-24T08:41:31.985Z,48.46
2018-06-24T08:44:01.293Z,47.56
2018-06-24T08:46:33.580Z,47.24
2018-06-24T08:49:04.259Z,46.43
2018-06-24T08:51:33.655Z,46.46
2018-06-24T08:54:03.143Z,47.29
2018-06-24T08:56:32.479Z,46.80
2018-06-24T08:59:01.785Z,46.54
2018-06-24T09:01:31.191Z,45.69
2018-06-24T09:04:00.482Z,47.59
2018-06-24T09:06:29.836Z,47.32
2018-06-24T09:08:59.264Z,48.01
2018-06-24T09:11:28.730Z,47.17
2018-06-24T09:13:58.198Z,48.00
2018-06-24T09:16:27.602Z,48.41
2018-06-24T09:18:56.967Z,48.66
2018-06-24T09:21:26.360Z,47.87
2018-06-24T09:23:55.721Z,46.73
2018-06-24T09:26:25.165Z,47.11
2018-06-24T09:28:54.490Z,45.45
2018-06-24T09:31:23.761Z,44.02
2018-06-24T09:33:53.081Z,43.86
2018-06-24T09:36:22.422Z,41.54
2018-06-24T09:38:51.702Z,41.76
2018-06-24T09:41:20.995Z,41.46
2018-06-24T09:43:50.365Z,42.65
2018-06-24T09:46:19.605Z,43.16
2018-06-24T09:48:48.989Z,42.78
2018-06-24T09:51:18.309Z,43.29
2018-06-24T09:53:47.660Z,42.01
2018-06-24T09:56:17.040Z,42.36
2018-06-24T09:58:46.372Z,41.73
2018-06-24T10:01:15.774Z,42.00
2018-06-24T10:03:45.072Z,41.83
2018-06-24T10:06:14.434Z,42.63
2018-06-24T10:08:44.082Z,40.64
2018-06-24T10:11:13.448Z,40.12
2018-06-24T10:13:42.782Z,39.65
2018-06-24T10:16:12.259Z,37.86
2018-06-24T10:18:41.622Z,38.59
2018-06-24T10:21:11.004Z,36.13
2018-06-24T10:23:40.427Z,37.69
2018-06-24T10:26:09.703Z,37.20
2018-06-24T10:28:39.011Z,34.79
2018-06-24T10:31:09.364Z,35.64
2018-06-24T10:33:38.695Z,32.56
2018-06-24T10:36:08.122Z,31.30
2018-06-24T10:38:37.443Z,33.00
2018-06-24T10:41:06.914Z,33.82
2018-06-24T10:43:36.175Z,34.61
2018-06-24T10:46:05.520Z,34.71
2018-06-24T10:48:34.902Z,32.74
2018-06-24T10:51:04.234Z,34.50
2018-06-24T10:53:33.491Z,33.47
2018-06-24T10:56:02.846Z,31.77
2018-06-24T10:58:32.164Z,32.95
2018-06-24T11:01:01.578Z,32.83
2018-06-24T11:03:30.892Z,32.88
2018-06-24T11:06:00.207Z,33.14
2018-06-24T11:08:29.520Z,33.35
2018-06-24T11:10:58.786Z,33.63
2018-06-24T11:13:28.137Z,33.53
2018-06-24T11:15:57.571Z,32.50
2018-06-24T11:18:26.843Z,34.00
2018-06-24T11:20:56.172Z,34.16
2018-06-24T11:23:25.474Z,34.26
2018-06-24T11:25:54.877Z,34.81
2018-06-24T11:28:25.279Z,34.37
2018-06-24T11:30:54.606Z,34.13
2018-06-24T11:33:23.574Z,35.48
2018-06-24T11:35:52.676Z,35.25
2018-06-24T11:38:22.047Z,35.99
2018-06-24T11:40:51.427Z,36.34
2018-06-24T11:43:20.724Z,37.14
2018-06-24T11:45:50.014Z,34.29
2018-06-24T11:48:19.389Z,35.02
2018-06-24T11:50:49.099Z,34.47
2018-06-24T11:53:18.953Z,36.06
2018-06-24T11:55:48.936Z,34.93
2018-06-24T11:58:18.726Z,35.33
2018-06-24T12:00:48.107Z,36.36
2018-06-24T12:03:17.463Z,36.30
2018-06-24T12:05:47.015Z,36.12
2018-06-24T12:08:16.458Z,36.84
2018-06-24T12:10:45.955Z,36.67
2018-06-24T12:13:15.377Z,36.21
2018-06-24T12:15:44.880Z,34.07
2018-06-24T12:18:14.791Z,34.55
2018-06-24T12:20:44.217Z,35.56
2018-06-24T12:23:13.605Z,36.52
2018-06-24T12:25:43.042Z,35.97
2018-06-24T12:28:12.510Z,35.22
2018-06-24T12:30:41.864Z,36.44
2018-06-24T12:33:11.275Z,36.74
2018-06-24T12:35:40.698Z,36.54
2018-06-24T12:38:10.072Z,37.63
2018-06-24T12:40:39.182Z,37.79
2018-06-24T12:43:08.528Z,37.18
2018-06-24T12:45:37.902Z,38.42
2018-06-24T12:48:07.237Z,36.83
2018-06-24T12:50:36.884Z,36.73
2018-06-24T12:53:06.325Z,38.60
2018-06-24T12:55:35.647Z,39.01
2018-06-24T12:58:05.012Z,40.21
2018-06-24T13:00:35.986Z,39.63
2018-06-24T13:03:04.857Z,40.06
2018-06-24T13:05:33.947Z,40.47
2018-06-24T13:08:03.236Z,40.29
2018-06-24T13:10:32.588Z,42.27
2018-06-24T13:13:01.991Z,42.57
2018-06-24T13:15:31.314Z,41.83
2018-06-24T13:18:00.630Z,42.05
2018-06-24T13:20:29.777Z,42.84
2018-06-24T13:22:59.229Z,42.80
2018-06-24T13:25:28.486Z,42.07
2018-06-24T13:27:57.934Z,43.53
2018-06-24T13:30:27.277Z,42.52
2018-06-24T13:32:56.609Z,43.12
2018-06-24T13:35:25.988Z,43.98
2018-06-24T13:37:55.361Z,43.63
2018-06-24T13:40:24.706Z,44.40
2018-06-24T13:42:54.001Z,44.14
2018-06-24T13:45:23.301Z,44.85
2018-06-24T13:47:53.389Z,44.37
2018-06-24T13:50:22.804Z,44.88
2018-06-24T13:52:52.131Z,45.20
2018-06-24T13:55:21.469Z,44.52
2018-06-24T13:57:50.735Z,45.49
2018-06-24T14:00:20.098Z,44.88
2018-06-24T14:02:49.263Z,48.31
2018-06-24T14:05:18.519Z,48.42
2018-06-24T14:07:47.912Z,47.13
2018-06-24T14:10:17.378Z,47.18
2018-06-24T14:12:46.743Z,47.88
2018-06-24T14:15:16.021Z,47.63
2018-06-24T14:17:45.640Z,45.80
2018-06-24T14:20:15.086Z,45.48
2018-06-24T14:22:44.449Z,45.08
2018-06-24T14:25:13.566Z,46.13
2018-06-24T14:27:43.021Z,46.12
2018-06-24T14:30:12.378Z,47.48
2018-06-24T14:32:41.479Z,48.84
2018-06-24T14:35:10.787Z,48.03
2018-06-24T14:37:40.125Z,49.57
2018-06-24T14:40:09.253Z,48.34
2018-06-24T14:42:38.532Z,47.68
2018-06-24T14:45:07.549Z,48.75
2018-06-24T14:47:36.831Z,48.00
2018-06-24T14:50:06.291Z,47.95
2018-06-24T14:52:35.544Z,49.22
2018-06-24T14:55:04.921Z,49.23
2018-06-24T14:57:34.018Z,51.05
2018-06-24T15:00:03.558Z,49.99
2018-06-24T15:02:35.229Z,51.34
2018-06-24T15:05:05.667Z,51.74
2018-06-24T15:07:34.914Z,51.42
2018-06-24T15:10:04.820Z,52.75
2018-06-24T15:12:34.327Z,53.37
2018-06-24T15:15:03.520Z,54.03
2018-06-24T15:17:32.829Z,54.00
2018-06-24T15:20:02.175Z,53.74
2018-06-24T15:22:31.810Z,54.10
2018-06-24T15:25:01.310Z,55.15
2018-06-24T15:27:30.342Z,55.45
2018-06-24T15:29:59.700Z,55.18
2018-06-24T15:32:29.077Z,55.29
2018-06-24T15:34:58.362Z,53.77
2018-06-24T15:37:27.689Z,53.64
2018-06-24T15:39:57.048Z,52.64
2018-06-24T15:42:26.439Z,52.34
2018-06-24T15:44:55.842Z,51.56
2018-06-24T15:47:25.388Z,50.88
2018-06-24T15:49:54.655Z,50.79
2018-06-24T15:52:23.940Z,51.74
2018-06-24T15:54:53.358Z,53.08
2018-06-24T15:57:22.698Z,53.56
2018-06-24T15:59:52.021Z,54.00
2018-06-24T16:02:21.104Z,53.45
2018-06-24T16:04:50.360Z,53.80
2018-06-24T16:07:19.610Z,54.04
2018-06-24T16:09:48.968Z,54.99
2018-06-24T16:12:18.393Z,55.60
2018-06-24T16:14:48.143Z,56.13
2018-06-24T16:17:17.586Z,56.39
2018-06-24T16:19:46.945Z,56.66
2018-06-24T16:22:16.261Z,57.62
2018-06-24T16:24:45.642Z,57.70
2018-06-24T16:27:15.024Z,58.37
2018-06-24T16:29:44.543Z,58.30
2018-06-24T16:32:14.052Z,59.25
2018-06-24T16:34:43.538Z,57.89
2018-06-24T16:37:12.813Z,58.18
2018-06-24T16:39:42.217Z,57.53
2018-06-24T16:42:11.518Z,57.75
2018-06-24T16:44:40.914Z,57.84
2018-06-24T16:47:09.989Z,58.11
2018-06-24T16:49:39.329Z,58.31
2018-06-24T16:52:08.618Z,58.50
2018-06-24T16:54:37.955Z,58.73
2018-06-24T16:57:07.009Z,58.21
2018-06-24T16:59:36.377Z,59.05
2018-06-24T17:02:06.082Z,58.70
2018-06-24T17:04:35.354Z,59.22
2018-06-24T17:07:04.949Z,58.61
2018-06-24T17:09:34.241Z,58.34
2018-06-24T17:12:03.540Z,59.29
2018-06-24T17:14:32.894Z,59.63
2018-06-24T17:17:03.265Z,59.57
2018-06-24T17:19:32.521Z,60.10
2018-06-24T17:22:01.655Z,59.92
2018-06-24T17:24:30.742Z,60.15
2018-06-24T17:27:00.089Z,60.22
2018-06-24T17:29:29.449Z,59.27
2018-06-24T17:31:58.876Z,59.61
2018-06-24T17:34:28.149Z,60.67
2018-06-24T17:36:57.566Z,60.92
2018-06-24T17:39:27.041Z,61.86
2018-06-24T17:41:56.389Z,62.18
2018-06-24T17:44:25.630Z,61.55
2018-06-24T17:46:55.057Z,62.30
2018-06-24T17:49:24.419Z,61.69
2018-06-24T17:51:53.711Z,61.73
2018-06-24T17:54:23.013Z,61.96
2018-06-24T17:56:52.567Z,62.31
2018-06-24T17:59:21.867Z,61.53
2018-06-24T18:01:50.957Z,62.49
2018-06-24T18:04:20.412Z,62.43
2018-06-24T18:06:49.722Z,63.06
2018-06-24T18:09:19.011Z,62.04
2018-06-24T18:11:48.381Z,63.07
2018-06-24T18:14:17.812Z,62.73
2018-06-24T18:16:47.336Z,62.40
2018-06-24T18:19:16.808Z,62.13
2018-06-24T18:21:46.140Z,62.32
2018-06-24T18:24:15.574Z,63.40
2018-06-24T18:26:44.987Z,63.28
2018-06-24T18:29:14.371Z,64.38
2018-06-24T18:31:43.709Z,63.65
2018-06-24T18:34:13.018Z,63.61
2018-06-24T18:36:42.484Z,63.39
2018-06-24T18:39:11.874Z,63.27
2018-06-24T18:41:41.211Z,63.00
2018-06-24T18:44:10.466Z,64.21
2018-06-24T18:46:39.898Z,64.28
2018-06-24T18:49:09.280Z,66.26
2018-06-24T18:51:38.571Z,65.83
2018-06-24T18:54:07.926Z,63.67
2018-06-24T18:56:37.345Z,65.30
2018-06-24T18:59:06.583Z,63.98
2018-06-24T19:01:36.019Z,65.06
2018-06-24T19:04:05.483Z,64.32
2018-06-24T19:06:34.813Z,65.21
2018-06-24T19:09:05.996Z,65.00
2018-06-24T19:11:35.347Z,64.59
2018-06-24T19:14:04.628Z,66.02
2018-06-24T19:16:34.110Z,65.73
2018-06-24T19:19:03.409Z,66.13
2018-06-24T19:21:32.705Z,65.62
2018-06-24T19:24:02.037Z,66.70
2018-06-24T19:26:31.391Z,65.35
2018-06-24T19:29:00.806Z,66.32
2018-06-24T19:31:30.141Z,66.15
2018-06-24T19:33:59.550Z,66.68
2018-06-24T19:36:29.001Z,66.90
2018-06-24T19:38:58.362Z,67.52
2018-06-24T19:41:27.679Z,68.30
2018-06-24T19:43:57.091Z,67.91
2018-06-24T19:46:26.176Z,68.58
2018-06-24T19:48:55.601Z,68.46
2018-06-24T19:51:24.901Z,68.95
2018-06-24T19:53:54.252Z,69.28
2018-06-24T19:56:23.698Z,69.93
2018-06-24T19:58:52.975Z,70.06
2018-06-24T20:01:22.359Z,71.02
2018-06-24T20:03:51.611Z,72.54
2018-06-24T20:06:20.894Z,72.70
2018-06-24T20:08:50.434Z,74.80
2018-06-24T20:11:19.749Z,75.10
2018-06-24T20:13:49.075Z,75.77
2018-06-24T20:16:18.399Z,75.68
2018-06-24T20:18:47.720Z,76.20
2018-06-24T20:21:17.276Z,76.99
2018-06-24T20:23:46.872Z,77.49
2018-06-24T20:26:16.366Z,78.16
2018-06-24T20:28:46.013Z,78.21
2018-06-24T20:31:15.424Z,78.96
2018-06-24T20:33:44.927Z,78.10
2018-06-24T20:36:14.439Z,78.20
2018-06-24T20:38:43.727Z,77.81
2018-06-24T20:41:14.209Z,78.45
2018-06-24T20:43:43.568Z,78.13
2018-06-24T20:46:12.924Z,78.10
2018-06-24T20:48:42.206Z,77.64
2018-06-24T20:51:11.565Z,78.12
2018-06-24T20:53:40.854Z,78.33
2018-06-24T20:56:10.249Z,78.21
2018-06-24T20:58:39.747Z,77.55
2018-06-24T21:01:09.105Z,77.99
2018-06-24T21:03:38.529Z,78.15
2018-06-24T21:06:07.806Z,77.75
2018-06-24T21:08:37.105Z,77.51
2018-06-24T21:11:06.583Z,78.37
2018-06-24T21:13:35.987Z,78.33
2018-06-24T21:16:05.317Z,78.15
2018-06-24T21:18:34.640Z,78.11
2018-06-24T21:21:04.029Z,77.82
2018-06-24T21:23:33.528Z,77.85
2018-06-24T21:26:03.086Z,78.85
2018-06-24T21:28:32.363Z,78.23
2018-06-24T21:31:01.704Z,77.90
2018-06-24T21:33:30.993Z,78.72
2018-06-24T21:36:00.304Z,78.06
2018-06-24T21:38:29.613Z,79.04
2018-06-24T21:40:59.074Z,79.14
2018-06-24T21:43:28.228Z,79.10
2018-06-24T21:45:57.609Z,78.95
2018-06-24T21:48:27.075Z,78.95
2018-06-24T21:50:56.453Z,78.73
2018-06-24T21:53:25.830Z,79.34
2018-06-24T21:55:55.067Z,78.52
2018-06-24T21:58:24.327Z,78.64
2018-06-24T22:00:54.436Z,78.46
2018-06-24T22:03:23.809Z,78.43
2018-06-24T22:05:52.824Z,79.00
2018-06-24T22:08:21.887Z,80.06
2018-06-24T22:10:51.256Z,81.42
2018-06-24T22:13:20.577Z,83.04
2018-06-24T22:15:49.814Z,84.19
2018-06-24T22:18:19.305Z,84.59
2018-06-24T22:20:48.638Z,85.51
2018-06-24T22:23:18.054Z,85.31
2018-06-24T22:25:47.453Z,85.57
2018-06-24T22:28:16.745Z,86.15
2018-06-24T22:30:46.104Z,86.40
2018-06-24T22:33:15.514Z,86.55
2018-06-24T22:35:44.919Z,86.69
2018-06-24T22:38:14.382Z,86.42
2018-06-24T22:40:43.774Z,86.65
2018-06-24T22:43:13.174Z,86.64
2018-06-24T22:45:43.392Z,86.22
2018-06-24T22:48:12.650Z,86.39
2018-06-24T22:50:42.137Z,85.61
2018-06-24T22:53:11.587Z,85.34
2018-06-24T22:55:40.945Z,85.04
2018-06-24T22:58:10.247Z,84.51
2018-06-24T23:00:39.586Z,84.70
2018-06-24T23:03:08.866Z,86.01
2018-06-24T23:05:38.195Z,85.09
2018-06-24T23:08:07.536Z,84.56
2018-06-24T23:10:37.848Z,84.62
2018-06-24T23:13:07.603Z,83.88
2018-06-24T23:15:37.036Z,83.88
2018-06-24T23:18:06.394Z,83.81
2018-06-24T23:20:35.758Z,84.21
2018-06-24T23:23:05.266Z,83.57
2018-06-24T23:25:35.456Z,83.60
2018-06-24T23:28:04.887Z,83.63
2018-06-24T23:30:34.253Z,83.92
2018-06-24T23:33:03.574Z,82.82
2018-06-24T23:35:32.965Z,83.93
2018-06-24T23:38:02.284Z,83.59
2018-06-24T23:40:31.571Z,83.31
2018-06-24T23:43:00.853Z,83.00
2018-06-24T23:45:30.197Z,83.54
2018-06-24T23:47:59.542Z,82.10
2018-06-24T23:50:28.856Z,82.48
2018-06-24T23:52:58.169Z,82.21
2018-06-24T23:55:27.491Z,82.15
2018-06-24T23:57:56.798Z,82.93
